createdAt,value
2019-01-20T00:01:58.732Z,973.70
2019-01-20T00:02:58.964Z,973.71
2019-01-20T00:05:03.137Z,973.71
2019-01-20T00:06:03.363Z,973.72
2019-01-20T00:08:07.509Z,973.68
2019-01-20T00:09:07.741Z,973.67
2019-01-20T00:11:16.529Z,973.66
2019-01-20T00:12:12.144Z,973.62
2019-01-20T00:14:16.325Z,973.59
2019-01-20T00:15:16.558Z,973.60
2019-01-20T00:17:20.701Z,973.55
2019-01-20T00:18:20.930Z,973.58
2019-01-20T00:20:25.183Z,973.54
2019-01-20T00:21:25.328Z,973.56
2019-01-20T00:23:29.477Z,973.51
2019-01-20T00:24:29.696Z,973.49
2019-01-20T00:26:22.795Z,973.48
2019-01-20T00:27:23.029Z,973.50
2019-01-20T00:29:27.174Z,973.45
2019-01-20T00:30:27.408Z,973.41
2019-01-20T00:32:31.576Z,973.46
2019-01-20T00:33:31.809Z,973.45
2019-01-20T00:35:35.971Z,973.44
2019-01-20T00:36:36.202Z,973.42
2019-01-20T00:38:40.344Z,973.44
2019-01-20T00:39:40.578Z,973.44
2019-01-20T00:41:44.743Z,973.43
2019-01-20T00:42:44.977Z,973.48
2019-01-20T00:44:49.415Z,973.44
2019-01-20T00:45:49.461Z,973.42
2019-01-20T00:47:53.563Z,973.45
2019-01-20T00:48:53.795Z,973.43
2019-01-20T00:50:57.954Z,973.41
2019-01-20T00:51:58.195Z,973.38
2019-01-20T00:54:02.331Z,973.37
2019-01-20T00:55:02.559Z,973.41
2019-01-20T00:57:06.735Z,973.35
2019-01-20T00:58:06.965Z,973.34
2019-01-20T01:00:11.146Z,973.37
2019-01-20T01:01:11.384Z,973.40
2019-01-20T01:03:15.524Z,973.39
2019-01-20T01:04:15.763Z,973.41
2019-01-20T01:06:08.865Z,973.42
2019-01-20T01:07:09.094Z,973.41
2019-01-20T01:09:13.243Z,973.36
2019-01-20T01:10:13.461Z,973.37
2019-01-20T01:12:17.630Z,973.36
2019-01-20T01:13:17.862Z,973.31
2019-01-20T01:15:22.003Z,973.37
2019-01-20T01:16:22.234Z,973.34
2019-01-20T01:18:26.397Z,973.37
2019-01-20T01:19:26.628Z,973.41
2019-01-20T01:21:30.800Z,973.42
2019-01-20T01:22:31.030Z,973.40
2019-01-20T01:24:35.172Z,973.44
2019-01-20T01:25:35.405Z,973.45
2019-01-20T01:27:39.570Z,973.47
2019-01-20T01:28:39.804Z,973.46
2019-01-20T01:30:43.953Z,973.45
2019-01-20T01:31:44.242Z,973.43
2019-01-20T01:33:48.346Z,973.48
2019-01-20T01:34:48.584Z,973.45
2019-01-20T01:36:52.749Z,973.47
2019-01-20T01:37:52.982Z,973.46
2019-01-20T01:39:57.127Z,973.42
2019-01-20T01:40:57.360Z,973.46
2019-01-20T01:43:01.530Z,973.45
2019-01-20T01:44:01.762Z,973.44
2019-01-20T01:45:54.837Z,973.42
2019-01-20T01:46:55.068Z,973.42
2019-01-20T01:48:59.232Z,973.40
2019-01-20T01:49:59.465Z,973.37
2019-01-20T01:52:03.628Z,973.38
2019-01-20T01:53:03.860Z,973.38
2019-01-20T01:55:08.008Z,973.38
2019-01-20T01:56:08.238Z,973.38
2019-01-20T01:58:12.401Z,973.39
2019-01-20T01:59:12.632Z,973.38
2019-01-20T02:01:16.789Z,973.41
2019-01-20T02:02:17.009Z,973.37
2019-01-20T02:04:21.179Z,973.40
2019-01-20T02:05:21.402Z,973.40
2019-01-20T02:07:25.548Z,973.39
2019-01-20T02:08:25.777Z,973.36
2019-01-20T02:10:29.943Z,973.35
2019-01-20T02:11:30.176Z,973.36
2019-01-20T02:13:34.341Z,973.29
2019-01-20T02:14:34.574Z,973.33
2019-01-20T02:16:27.653Z,973.34
2019-01-20T02:17:27.894Z,973.33
2019-01-20T02:19:32.039Z,973.35
2019-01-20T02:20:32.272Z,973.38
2019-01-20T02:22:36.418Z,973.34
2019-01-20T02:23:36.673Z,973.36
2019-01-20T02:25:40.818Z,973.34
2019-01-20T02:26:41.048Z,973.33
2019-01-20T02:28:45.220Z,973.35
2019-01-20T02:29:45.459Z,973.34
2019-01-20T02:31:49.597Z,973.37
2019-01-20T02:32:49.832Z,973.39
2019-01-20T02:34:53.997Z,973.35
2019-01-20T02:35:54.231Z,973.40
2019-01-20T02:37:58.377Z,973.37
2019-01-20T02:38:58.608Z,973.36
2019-01-20T02:41:02.766Z,973.33
2019-01-20T02:42:02.997Z,973.28
2019-01-20T02:44:07.168Z,973.26
2019-01-20T02:45:07.385Z,973.29
2019-01-20T02:47:11.532Z,973.26
2019-01-20T02:48:11.759Z,973.28
2019-01-20T02:50:15.927Z,973.30
2019-01-20T02:51:16.157Z,973.27
2019-01-20T02:53:20.305Z,973.28
2019-01-20T02:54:20.538Z,973.33
2019-01-20T02:56:13.634Z,973.27
2019-01-20T02:57:13.865Z,973.29
2019-01-20T02:59:18.041Z,973.31
2019-01-20T03:00:18.264Z,973.29
2019-01-20T03:02:22.412Z,973.28
2019-01-20T03:03:22.647Z,973.30
2019-01-20T03:05:26.816Z,973.27
2019-01-20T03:06:27.053Z,973.29
2019-01-20T03:08:31.191Z,973.22
2019-01-20T03:09:31.423Z,973.23
2019-01-20T03:11:35.588Z,973.27
2019-01-20T03:12:35.821Z,973.23
2019-01-20T03:14:39.993Z,973.26
2019-01-20T03:15:40.240Z,973.24
2019-01-20T03:17:44.382Z,973.28
2019-01-20T03:18:44.609Z,973.25
2019-01-20T03:20:48.779Z,973.22
2019-01-20T03:21:49.010Z,973.26
2019-01-20T03:23:53.153Z,973.28
2019-01-20T03:24:53.394Z,973.26
2019-01-20T03:26:57.544Z,973.27
2019-01-20T03:27:57.774Z,973.29
2019-01-20T03:30:01.940Z,973.27
2019-01-20T03:31:02.172Z,973.23
2019-01-20T03:33:06.314Z,973.24
2019-01-20T03:34:06.545Z,973.24
2019-01-20T03:35:59.638Z,973.31
2019-01-20T03:36:59.869Z,973.36
2019-01-20T03:39:04.018Z,973.34
2019-01-20T03:40:04.249Z,973.32
2019-01-20T03:42:12.096Z,973.31
2019-01-20T03:43:08.653Z,973.35
2019-01-20T03:45:12.814Z,973.36
2019-01-20T03:46:13.053Z,973.33
2019-01-20T03:48:17.189Z,973.36
2019-01-20T03:49:17.422Z,973.37
2019-01-20T03:51:21.590Z,973.42
2019-01-20T03:52:21.824Z,973.41
2019-01-20T03:54:25.964Z,973.41
2019-01-20T03:55:26.198Z,973.40
2019-01-20T03:57:30.363Z,973.34
2019-01-20T03:58:30.597Z,973.35
2019-01-20T04:00:34.763Z,973.35
2019-01-20T04:01:34.994Z,973.37
2019-01-20T04:03:39.136Z,973.34
2019-01-20T04:04:39.368Z,973.33
2019-01-20T04:06:43.543Z,973.31
2019-01-20T04:07:43.773Z,973.35
2019-01-20T04:09:47.915Z,973.31
2019-01-20T04:10:48.147Z,973.34
2019-01-20T04:12:52.319Z,973.31
2019-01-20T04:13:52.556Z,973.31
2019-01-20T04:15:45.661Z,973.29
2019-01-20T04:16:45.889Z,973.30
2019-01-20T04:18:50.033Z,973.29
2019-01-20T04:19:50.269Z,973.26
2019-01-20T04:21:54.432Z,973.30
2019-01-20T04:22:54.665Z,973.32
2019-01-20T04:24:58.808Z,973.31
2019-01-20T04:25:59.038Z,973.30
2019-01-20T04:28:03.201Z,973.32
2019-01-20T04:29:03.434Z,973.30
2019-01-20T04:31:07.575Z,973.32
2019-01-20T04:32:07.808Z,973.29
2019-01-20T04:34:11.969Z,973.26
2019-01-20T04:35:12.208Z,973.31
2019-01-20T04:37:16.377Z,973.27
2019-01-20T04:38:16.609Z,973.27
2019-01-20T04:40:20.749Z,973.25
2019-01-20T04:41:20.981Z,973.27
2019-01-20T04:43:25.144Z,973.17
2019-01-20T04:44:25.388Z,973.12
2019-01-20T04:46:18.448Z,973.16
2019-01-20T04:47:18.684Z,973.19
2019-01-20T04:49:22.847Z,973.22
2019-01-20T04:50:23.075Z,973.15
2019-01-20T04:52:27.240Z,973.12
2019-01-20T04:53:27.478Z,973.13
2019-01-20T04:55:31.622Z,973.11
2019-01-20T04:56:31.851Z,973.10
2019-01-20T04:58:36.016Z,973.12
2019-01-20T04:59:36.250Z,973.12
2019-01-20T05:01:40.389Z,973.09
2019-01-20T05:02:40.620Z,973.13
2019-01-20T05:04:44.785Z,973.14
2019-01-20T05:05:45.019Z,973.14
2019-01-20T05:07:49.185Z,973.14
2019-01-20T05:08:49.414Z,973.14
2019-01-20T05:10:53.557Z,973.13
2019-01-20T05:11:53.789Z,973.14
2019-01-20T05:13:58.442Z,973.18
2019-01-20T05:14:58.673Z,973.22
2019-01-20T05:17:02.839Z,973.19
2019-01-20T05:18:03.072Z,973.21
2019-01-20T05:20:07.234Z,973.20
2019-01-20T05:21:07.464Z,973.21
2019-01-20T05:23:11.629Z,973.16
2019-01-20T05:24:11.870Z,973.15
2019-01-20T05:26:04.929Z,973.17
2019-01-20T05:27:05.162Z,973.20
2019-01-20T05:29:09.332Z,973.22
2019-01-20T05:30:09.572Z,973.22
2019-01-20T05:32:13.708Z,973.23
2019-01-20T05:33:13.943Z,973.20
2019-01-20T05:35:18.111Z,973.20
2019-01-20T05:36:18.338Z,973.20
2019-01-20T05:38:22.500Z,973.25
2019-01-20T05:39:22.733Z,973.23
2019-01-20T05:41:26.879Z,973.26
2019-01-20T05:42:27.113Z,973.26
2019-01-20T05:44:31.276Z,973.28
2019-01-20T05:45:31.509Z,973.28
2019-01-20T05:47:35.675Z,973.25
2019-01-20T05:48:35.909Z,973.26
2019-01-20T05:50:40.063Z,973.28
2019-01-20T05:51:40.295Z,973.29
2019-01-20T05:53:44.521Z,973.30
2019-01-20T05:54:44.694Z,973.26
2019-01-20T05:56:48.834Z,973.31
2019-01-20T05:57:49.068Z,973.31
2019-01-20T05:59:53.228Z,973.28
2019-01-20T06:00:53.466Z,973.27
2019-01-20T06:02:58.634Z,973.28
2019-01-20T06:03:58.872Z,973.30
2019-01-20T06:05:51.948Z,973.29
2019-01-20T06:06:52.181Z,973.32
2019-01-20T06:08:56.354Z,973.32
2019-01-20T06:09:56.579Z,973.32
2019-01-20T06:12:00.724Z,973.32
2019-01-20T06:13:00.951Z,973.29
2019-01-20T06:15:05.107Z,973.36
2019-01-20T06:16:05.344Z,973.33
2019-01-20T06:18:09.514Z,973.40
2019-01-20T06:19:09.748Z,973.38
2019-01-20T06:21:13.891Z,973.40
2019-01-20T06:22:14.121Z,973.43
2019-01-20T06:24:18.290Z,973.40
2019-01-20T06:25:18.523Z,973.41
2019-01-20T06:27:22.672Z,973.39
2019-01-20T06:28:22.895Z,973.42
2019-01-20T06:30:27.063Z,973.41
2019-01-20T06:31:27.286Z,973.40
2019-01-20T06:33:31.459Z,973.44
2019-01-20T06:34:31.691Z,973.44
2019-01-20T06:36:24.767Z,973.50
2019-01-20T06:37:25.049Z,973.47
2019-01-20T06:39:29.151Z,973.50
2019-01-20T06:40:29.673Z,973.54
2019-01-20T06:42:33.732Z,973.56
2019-01-20T06:43:33.926Z,973.50
2019-01-20T06:45:38.112Z,973.54
2019-01-20T06:46:38.332Z,973.53
2019-01-20T06:48:42.497Z,973.62
2019-01-20T06:49:42.730Z,973.64
2019-01-20T06:51:46.871Z,973.68
2019-01-20T06:52:47.103Z,973.72
2019-01-20T06:54:51.271Z,973.75
2019-01-20T06:55:51.510Z,973.75
2019-01-20T06:57:55.646Z,973.78
2019-01-20T06:58:55.881Z,973.77
2019-01-20T07:01:00.043Z,973.79
2019-01-20T07:02:00.288Z,973.80
2019-01-20T07:04:04.442Z,973.89
2019-01-20T07:05:04.667Z,973.91
2019-01-20T07:07:08.819Z,973.91
2019-01-20T07:08:09.034Z,973.93
2019-01-20T07:10:13.196Z,973.93
2019-01-20T07:11:13.431Z,973.93
2019-01-20T07:13:17.563Z,973.91
2019-01-20T07:14:17.801Z,973.98
2019-01-20T07:16:10.890Z,974.01
2019-01-20T07:17:11.122Z,974.05
2019-01-20T07:19:15.289Z,974.07
2019-01-20T07:20:15.522Z,974.08
2019-01-20T07:22:19.663Z,974.13
2019-01-20T07:23:19.887Z,974.13
2019-01-20T07:25:24.052Z,974.15
2019-01-20T07:26:24.281Z,974.17
2019-01-20T07:28:28.922Z,974.34
2019-01-20T07:29:29.154Z,974.41
2019-01-20T07:31:33.316Z,974.71
2019-01-20T07:32:33.548Z,974.70
2019-01-20T07:34:38.722Z,974.74
2019-01-20T07:35:38.953Z,974.84
2019-01-20T07:37:43.100Z,974.94
2019-01-20T07:38:43.333Z,975.00
2019-01-20T07:40:47.503Z,975.17
2019-01-20T07:41:47.789Z,975.33
2019-01-20T07:43:51.906Z,975.33
2019-01-20T07:44:52.166Z,975.41
2019-01-20T07:46:56.306Z,975.78
2019-01-20T07:47:56.541Z,975.84
2019-01-20T07:50:00.702Z,976.84
2019-01-20T07:51:00.934Z,976.89
2019-01-20T07:53:05.090Z,975.83
2019-01-20T07:54:05.326Z,975.51
2019-01-20T07:55:58.421Z,975.45
2019-01-20T07:56:58.658Z,975.49
2019-01-20T07:59:02.803Z,975.47
2019-01-20T08:00:03.035Z,975.50
2019-01-20T08:02:07.196Z,976.63
2019-01-20T08:03:07.430Z,977.46
2019-01-20T08:05:12.607Z,978.26
2019-01-20T08:06:12.845Z,978.42
2019-01-20T08:08:16.986Z,978.80
2019-01-20T08:09:17.230Z,979.07
2019-01-20T08:11:21.469Z,979.27
2019-01-20T08:12:23.597Z,979.54
2019-01-20T08:14:25.803Z,979.75
2019-01-20T08:15:25.981Z,979.59
2019-01-20T08:17:30.154Z,980.30
2019-01-20T08:18:30.386Z,980.49
2019-01-20T08:20:34.559Z,980.29
2019-01-20T08:21:34.794Z,980.26
2019-01-20T08:23:38.962Z,980.69
2019-01-20T08:24:39.206Z,980.96
2019-01-20T08:26:32.280Z,981.27
2019-01-20T08:27:32.519Z,981.33
2019-01-20T08:29:36.690Z,980.76
2019-01-20T08:30:36.938Z,981.28
2019-01-20T08:32:41.096Z,981.65
2019-01-20T08:33:41.334Z,981.62
2019-01-20T08:35:45.510Z,981.98
2019-01-20T08:36:45.771Z,981.94
2019-01-20T08:38:49.928Z,982.08
2019-01-20T08:39:50.168Z,981.83
2019-01-20T08:41:54.326Z,981.86
2019-01-20T08:42:54.567Z,981.73
2019-01-20T08:44:58.744Z,981.38
2019-01-20T08:45:58.985Z,981.25
2019-01-20T08:48:03.140Z,981.09
2019-01-20T08:49:03.381Z,980.54
2019-01-20T08:51:07.574Z,980.79
2019-01-20T08:52:07.814Z,980.81
2019-01-20T08:54:11.999Z,980.51
2019-01-20T08:55:12.252Z,980.35
2019-01-20T08:57:16.409Z,979.92
2019-01-20T08:58:16.656Z,979.62
2019-01-20T09:00:20.842Z,978.92
2019-01-20T09:01:21.091Z,978.80
2019-01-20T09:03:25.252Z,978.37
2019-01-20T09:04:25.494Z,977.85
2019-01-20T09:06:20.104Z,977.29
2019-01-20T09:07:20.350Z,977.68
2019-01-20T09:09:24.514Z,977.64
2019-01-20T09:10:24.757Z,977.10
2019-01-20T09:12:28.945Z,976.59
2019-01-20T09:13:29.384Z,976.59
2019-01-20T09:15:33.393Z,976.60
2019-01-20T09:16:33.637Z,976.58
2019-01-20T09:18:37.810Z,976.55
2019-01-20T09:19:38.057Z,976.54
2019-01-20T09:21:42.237Z,976.61
2019-01-20T09:22:42.486Z,976.58
2019-01-20T09:24:46.655Z,976.63
2019-01-20T09:25:46.928Z,976.61
2019-01-20T09:27:51.103Z,976.63
2019-01-20T09:28:51.344Z,976.60
2019-01-20T09:30:55.555Z,976.62
2019-01-20T09:31:55.807Z,976.63
2019-01-20T09:33:59.949Z,976.60
2019-01-20T09:35:00.192Z,976.63
2019-01-20T09:37:04.389Z,976.65
2019-01-20T09:38:04.631Z,976.68
2019-01-20T09:40:08.814Z,976.93
2019-01-20T09:41:09.070Z,977.35
2019-01-20T09:43:13.256Z,977.47
2019-01-20T09:44:13.501Z,977.53
2019-01-20T09:46:06.621Z,977.47
2019-01-20T09:47:06.873Z,977.53
2019-01-20T09:49:11.053Z,977.46
2019-01-20T09:50:11.306Z,977.46
2019-01-20T09:52:15.509Z,977.43
2019-01-20T09:53:15.758Z,977.39
2019-01-20T09:55:19.930Z,977.29
2019-01-20T09:56:20.181Z,977.32
2019-01-20T09:58:24.376Z,977.36
2019-01-20T09:59:24.628Z,977.26
2019-01-20T10:01:28.827Z,977.28
2019-01-20T10:02:29.074Z,977.28
2019-01-20T10:04:33.253Z,977.21
2019-01-20T10:05:33.501Z,977.17
2019-01-20T10:07:37.696Z,977.20
2019-01-20T10:08:37.946Z,977.16
2019-01-20T10:10:42.122Z,977.11
2019-01-20T10:11:42.370Z,977.05
2019-01-20T10:13:46.568Z,977.11
2019-01-20T10:14:46.819Z,977.06
2019-01-20T10:16:51.015Z,976.99
2019-01-20T10:17:51.263Z,977.02
2019-01-20T10:19:55.442Z,977.01
2019-01-20T10:20:55.691Z,977.01
2019-01-20T10:22:59.889Z,977.00
2019-01-20T10:24:00.137Z,977.01
2019-01-20T10:25:53.254Z,977.03
2019-01-20T10:26:53.509Z,976.96
2019-01-20T10:28:57.710Z,977.01
2019-01-20T10:29:57.959Z,977.00
2019-01-20T10:32:02.169Z,977.00
2019-01-20T10:33:03.455Z,977.04
2019-01-20T10:35:06.595Z,976.99
2019-01-20T10:36:06.845Z,977.02
2019-01-20T10:38:11.037Z,977.02
2019-01-20T10:39:11.286Z,977.11
2019-01-20T10:41:15.467Z,977.09
2019-01-20T10:42:15.716Z,977.12
2019-01-20T10:44:19.917Z,977.11
2019-01-20T10:45:20.184Z,977.12
2019-01-20T10:47:24.386Z,977.15
2019-01-20T10:48:24.639Z,977.15
2019-01-20T10:50:28.818Z,977.13
2019-01-20T10:51:29.066Z,977.14
2019-01-20T10:53:33.263Z,977.14
2019-01-20T10:54:33.514Z,977.18
2019-01-20T10:56:26.615Z,977.16
2019-01-20T10:57:26.865Z,977.18
2019-01-20T10:59:31.062Z,977.13
2019-01-20T11:00:31.309Z,977.16
2019-01-20T11:02:35.540Z,977.17
2019-01-20T11:03:35.788Z,977.18
2019-01-20T11:05:39.983Z,977.18
2019-01-20T11:06:40.215Z,977.14
2019-01-20T11:08:44.405Z,977.15
2019-01-20T11:09:44.653Z,977.13
2019-01-20T11:11:48.833Z,977.08
2019-01-20T11:12:49.087Z,977.08
2019-01-20T11:14:53.279Z,977.12
2019-01-20T11:15:53.533Z,977.02
2019-01-20T11:17:57.735Z,977.02
2019-01-20T11:18:57.983Z,977.10
2019-01-20T11:21:02.161Z,977.09
2019-01-20T11:22:02.409Z,977.05
2019-01-20T11:24:06.610Z,977.12
2019-01-20T11:25:06.862Z,977.12
2019-01-20T11:27:11.527Z,977.10
2019-01-20T11:28:11.778Z,977.06
2019-01-20T11:30:15.972Z,977.05
2019-01-20T11:31:16.223Z,977.04
2019-01-20T11:33:20.421Z,977.04
2019-01-20T11:34:20.672Z,976.96
2019-01-20T11:36:13.771Z,977.03
2019-01-20T11:37:14.022Z,977.03
2019-01-20T11:39:18.218Z,977.01
2019-01-20T11:40:18.471Z,977.02
2019-01-20T11:42:22.653Z,977.03
2019-01-20T11:43:22.905Z,977.02
2019-01-20T11:45:27.103Z,977.06
2019-01-20T11:46:27.423Z,977.02
2019-01-20T11:48:31.802Z,976.97
2019-01-20T11:49:32.203Z,977.01
2019-01-20T11:51:36.593Z,976.91
2019-01-20T11:52:37.012Z,976.78
2019-01-20T11:54:41.365Z,976.77
2019-01-20T11:55:41.623Z,976.78
2019-01-20T11:57:45.839Z,976.76
2019-01-20T11:58:46.165Z,976.77
2019-01-20T12:00:50.416Z,976.74
2019-01-20T12:01:50.921Z,976.74
2019-01-20T12:03:55.081Z,976.77
2019-01-20T12:04:55.109Z,976.76
2019-01-20T12:06:59.300Z,976.82
2019-01-20T12:07:59.551Z,976.83
2019-01-20T12:10:03.859Z,976.80
2019-01-20T12:11:04.196Z,976.77
2019-01-20T12:13:16.446Z,976.81
2019-01-20T12:14:09.969Z,976.83
2019-01-20T12:16:03.234Z,976.83
2019-01-20T12:17:03.483Z,976.86
2019-01-20T12:19:07.812Z,976.85
2019-01-20T12:20:08.115Z,976.84
2019-01-20T12:22:12.299Z,976.81
2019-01-20T12:23:12.695Z,976.81
2019-01-20T12:25:17.077Z,976.80
2019-01-20T12:26:17.377Z,976.78
2019-01-20T12:28:21.633Z,976.77
2019-01-20T12:29:21.972Z,976.77
2019-01-20T12:31:26.326Z,976.74
2019-01-20T12:32:26.575Z,976.73
2019-01-20T12:34:31.952Z,976.69
2019-01-20T12:35:31.180Z,976.72
2019-01-20T12:37:35.438Z,976.67
2019-01-20T12:38:35.804Z,976.71
2019-01-20T12:40:40.182Z,976.64
2019-01-20T12:41:40.200Z,976.66
2019-01-20T12:43:44.420Z,976.64
2019-01-20T12:44:44.744Z,976.64
2019-01-20T12:46:49.060Z,976.60
2019-01-20T12:47:49.309Z,976.63
2019-01-20T12:49:53.548Z,976.62
2019-01-20T12:50:53.801Z,976.61
2019-01-20T12:52:58.020Z,976.63
2019-01-20T12:53:58.413Z,976.63
2019-01-20T12:55:51.716Z,976.62
2019-01-20T12:56:51.847Z,976.60
2019-01-20T12:58:56.034Z,976.56
2019-01-20T12:59:56.472Z,976.57
2019-01-20T13:02:00.626Z,976.60
2019-01-20T13:03:01.021Z,976.59
2019-01-20T13:05:05.197Z,976.60
2019-01-20T13:06:05.577Z,976.59
2019-01-20T13:08:09.789Z,976.55
2019-01-20T13:09:10.185Z,976.56
2019-01-20T13:11:14.408Z,976.51
2019-01-20T13:12:14.774Z,976.53
2019-01-20T13:14:19.055Z,976.49
2019-01-20T13:15:19.433Z,976.51
2019-01-20T13:17:23.660Z,976.47
2019-01-20T13:18:23.902Z,976.44
2019-01-20T13:20:28.097Z,976.41
2019-01-20T13:21:28.382Z,976.39
2019-01-20T13:23:32.725Z,976.39
2019-01-20T13:24:33.076Z,976.38
2019-01-20T13:26:26.379Z,976.40
2019-01-20T13:27:26.743Z,976.40
2019-01-20T13:29:30.988Z,976.37
2019-01-20T13:30:31.327Z,976.37
2019-01-20T13:32:35.670Z,976.40
2019-01-20T13:33:35.949Z,976.39
2019-01-20T13:35:40.099Z,976.44
2019-01-20T13:36:40.458Z,976.41
2019-01-20T13:38:44.696Z,976.47
2019-01-20T13:39:44.800Z,976.45
2019-01-20T13:41:49.002Z,976.47
2019-01-20T13:42:49.310Z,976.44
2019-01-20T13:44:53.536Z,976.43
2019-01-20T13:45:53.827Z,976.41
2019-01-20T13:47:58.120Z,976.35
2019-01-20T13:48:58.522Z,976.39
2019-01-20T13:51:02.698Z,976.40
2019-01-20T13:52:02.947Z,976.32
2019-01-20T13:54:07.146Z,976.31
2019-01-20T13:55:07.396Z,976.30
2019-01-20T13:57:11.577Z,976.33
2019-01-20T13:58:11.827Z,976.31
2019-01-20T14:00:15.991Z,976.33
2019-01-20T14:01:16.243Z,976.34
2019-01-20T14:03:20.428Z,976.32
2019-01-20T14:04:20.678Z,976.34
2019-01-20T14:06:13.771Z,976.29
2019-01-20T14:07:14.021Z,976.35
2019-01-20T14:09:18.208Z,976.29
2019-01-20T14:10:18.455Z,976.27
2019-01-20T14:12:22.645Z,976.30
2019-01-20T14:13:22.895Z,976.29
2019-01-20T14:15:27.056Z,976.29
2019-01-20T14:16:27.308Z,976.29
2019-01-20T14:18:31.490Z,976.31
2019-01-20T14:19:31.737Z,976.34
2019-01-20T14:21:35.911Z,976.36
2019-01-20T14:22:36.153Z,976.34
2019-01-20T14:24:40.337Z,976.31
2019-01-20T14:25:40.583Z,976.34
2019-01-20T14:27:44.776Z,976.33
2019-01-20T14:28:45.021Z,976.35
2019-01-20T14:30:49.195Z,976.37
2019-01-20T14:31:49.440Z,976.39
2019-01-20T14:33:53.625Z,976.36
2019-01-20T14:34:53.919Z,976.35
2019-01-20T14:36:58.030Z,976.36
2019-01-20T14:37:58.274Z,976.34
2019-01-20T14:40:02.459Z,976.36
2019-01-20T14:41:02.706Z,976.38
2019-01-20T14:43:06.895Z,976.38
2019-01-20T14:44:07.148Z,976.38
2019-01-20T14:46:00.232Z,976.42
2019-01-20T14:47:00.479Z,976.40
2019-01-20T14:48:53.800Z,976.34
2019-01-20T14:49:54.042Z,976.36
2019-01-20T14:51:58.202Z,976.38
2019-01-20T14:52:58.633Z,976.40
2019-01-20T14:55:02.587Z,976.44
2019-01-20T14:56:02.829Z,976.44
2019-01-20T14:58:07.011Z,976.40
2019-01-20T14:59:07.267Z,976.41
2019-01-20T15:01:11.509Z,976.42
2019-01-20T15:02:11.736Z,976.43
2019-01-20T15:04:15.920Z,976.43
2019-01-20T15:05:16.560Z,976.39
2019-01-20T15:07:20.325Z,976.43
2019-01-20T15:08:20.566Z,976.38
2019-01-20T15:10:24.742Z,976.40
2019-01-20T15:11:25.156Z,976.35
2019-01-20T15:13:29.340Z,976.36
2019-01-20T15:14:29.628Z,976.38
2019-01-20T15:16:22.743Z,976.43
2019-01-20T15:17:22.983Z,976.39
2019-01-20T15:19:27.158Z,976.39
2019-01-20T15:20:27.399Z,976.37
2019-01-20T15:22:31.553Z,976.36
2019-01-20T15:23:31.787Z,976.43
2019-01-20T15:25:35.970Z,976.33
2019-01-20T15:26:36.216Z,976.32
2019-01-20T15:28:40.389Z,976.33
2019-01-20T15:29:40.640Z,976.32
2019-01-20T15:31:44.768Z,976.31
2019-01-20T15:32:45.007Z,976.38
2019-01-20T15:34:50.187Z,976.35
2019-01-20T15:35:50.426Z,976.34
2019-01-20T15:37:54.583Z,976.31
2019-01-20T15:38:54.824Z,976.32
2019-01-20T15:40:58.996Z,976.31
2019-01-20T15:41:59.242Z,976.29
2019-01-20T15:44:03.404Z,976.29
2019-01-20T15:45:03.644Z,976.32
2019-01-20T15:47:08.805Z,976.32
2019-01-20T15:48:09.040Z,976.29
2019-01-20T15:50:13.204Z,976.30
2019-01-20T15:51:13.446Z,976.27
2019-01-20T15:53:17.596Z,976.29
2019-01-20T15:54:17.840Z,976.33
2019-01-20T15:56:10.933Z,976.33
2019-01-20T15:57:11.172Z,976.38
2019-01-20T15:59:15.341Z,976.38
2019-01-20T16:00:15.581Z,976.37
2019-01-20T16:02:19.723Z,976.37
2019-01-20T16:03:19.963Z,976.38
2019-01-20T16:05:24.126Z,976.45
2019-01-20T16:06:24.365Z,976.45
2019-01-20T16:08:28.508Z,976.44
2019-01-20T16:09:28.746Z,976.43
2019-01-20T16:11:32.930Z,976.46
2019-01-20T16:12:33.145Z,976.46
2019-01-20T16:14:37.313Z,976.41
2019-01-20T16:15:37.549Z,976.47
2019-01-20T16:17:41.690Z,976.45
2019-01-20T16:18:41.925Z,976.49
2019-01-20T16:20:46.088Z,976.46
2019-01-20T16:21:46.323Z,976.47
2019-01-20T16:23:50.465Z,976.49
2019-01-20T16:24:50.702Z,976.45
2019-01-20T16:26:54.865Z,976.50
2019-01-20T16:27:55.104Z,976.50
2019-01-20T16:29:59.454Z,976.55
2019-01-20T16:30:59.462Z,976.56
2019-01-20T16:33:03.603Z,976.58
2019-01-20T16:34:03.843Z,976.56
2019-01-20T16:35:56.930Z,976.55
2019-01-20T16:36:57.165Z,976.57
2019-01-20T16:39:01.306Z,976.56
2019-01-20T16:40:01.550Z,976.59
2019-01-20T16:42:05.703Z,976.60
2019-01-20T16:43:05.938Z,976.55
2019-01-20T16:45:10.086Z,976.63
2019-01-20T16:46:10.323Z,976.63
2019-01-20T16:48:14.485Z,976.63
2019-01-20T16:49:14.733Z,976.62
2019-01-20T16:51:18.897Z,976.64
2019-01-20T16:52:19.131Z,976.62
2019-01-20T16:54:23.275Z,976.65
2019-01-20T16:55:23.508Z,976.64
2019-01-20T16:57:27.671Z,976.70
2019-01-20T16:58:27.907Z,976.71
2019-01-20T17:00:32.040Z,976.71
2019-01-20T17:01:32.278Z,976.71
2019-01-20T17:03:36.444Z,976.74
2019-01-20T17:04:36.714Z,976.72
2019-01-20T17:06:29.768Z,976.73
2019-01-20T17:07:30.022Z,976.78
2019-01-20T17:09:34.142Z,976.78
2019-01-20T17:10:34.376Z,976.79
2019-01-20T17:12:38.532Z,976.84
2019-01-20T17:13:38.768Z,976.84
2019-01-20T17:15:42.906Z,976.78
2019-01-20T17:16:43.140Z,976.86
2019-01-20T17:18:47.302Z,976.89
2019-01-20T17:19:47.535Z,976.85
2019-01-20T17:21:51.712Z,976.90
2019-01-20T17:22:51.949Z,976.91
2019-01-20T17:24:56.086Z,976.97
2019-01-20T17:25:56.322Z,976.97
2019-01-20T17:28:00.480Z,977.00
2019-01-20T17:29:00.715Z,976.99
2019-01-20T17:31:04.854Z,977.04
2019-01-20T17:32:05.096Z,976.95
2019-01-20T17:34:09.255Z,976.99
2019-01-20T17:35:09.490Z,976.99
2019-01-20T17:37:14.068Z,977.12
2019-01-20T17:38:13.887Z,977.04
2019-01-20T17:40:18.043Z,977.09
2019-01-20T17:41:18.284Z,977.12
2019-01-20T17:43:22.451Z,977.11
2019-01-20T17:44:22.685Z,977.12
2019-01-20T17:46:15.759Z,977.15
2019-01-20T17:47:15.996Z,977.16
2019-01-20T17:49:20.157Z,977.14
2019-01-20T17:50:20.394Z,977.14
2019-01-20T17:52:24.531Z,977.18
2019-01-20T17:53:24.769Z,977.22
2019-01-20T17:55:29.947Z,977.27
2019-01-20T17:56:30.188Z,977.24
2019-01-20T17:58:34.347Z,977.26
2019-01-20T17:59:34.581Z,977.25
2019-01-20T18:01:38.750Z,977.28
2019-01-20T18:02:39.021Z,977.33
2019-01-20T18:04:43.182Z,977.32
2019-01-20T18:05:43.423Z,977.34
2019-01-20T18:07:47.586Z,977.39
2019-01-20T18:08:47.864Z,977.39
2019-01-20T18:10:52.079Z,977.43
2019-01-20T18:11:52.341Z,977.41
2019-01-20T18:13:56.568Z,977.44
2019-01-20T18:14:56.883Z,977.48
2019-01-20T18:17:01.035Z,977.55
2019-01-20T18:18:01.302Z,977.55
2019-01-20T18:20:05.531Z,977.58
2019-01-20T18:21:05.845Z,977.63
2019-01-20T18:23:09.984Z,977.65
2019-01-20T18:24:10.222Z,977.67
2019-01-20T18:26:03.348Z,977.66
2019-01-20T18:27:03.762Z,977.65
2019-01-20T18:29:07.830Z,977.68
2019-01-20T18:30:08.065Z,977.68
2019-01-20T18:32:12.208Z,977.75
2019-01-20T18:33:12.493Z,977.73
2019-01-20T18:35:16.662Z,977.79
2019-01-20T18:36:16.890Z,977.81
2019-01-20T18:38:21.043Z,977.84
2019-01-20T18:39:21.274Z,977.83
2019-01-20T18:41:25.614Z,977.88
2019-01-20T18:42:25.704Z,977.87
2019-01-20T18:44:29.873Z,977.89
2019-01-20T18:45:30.137Z,977.89
2019-01-20T18:47:34.302Z,977.94
2019-01-20T18:48:34.581Z,977.95
2019-01-20T18:50:38.746Z,977.97
2019-01-20T18:51:39.026Z,977.99
2019-01-20T18:53:43.173Z,978.02
2019-01-20T18:54:43.402Z,978.00
2019-01-20T18:56:47.565Z,978.06
2019-01-20T18:57:47.797Z,978.05
2019-01-20T18:59:51.964Z,978.09
2019-01-20T19:00:52.201Z,978.07
2019-01-20T19:02:56.347Z,978.06
2019-01-20T19:03:56.588Z,978.10
2019-01-20T19:05:49.673Z,978.11